sensor_id;sensor_type;location;lat;lon;timestamp;temperature;humidity
15115;DHT22;7658;51.456;7.622;2023-05-07T00:01:53;13.40;99.90
15115;DHT22;7658;51.456;7.622;2023-05-07T00:04:19;13.40;99.90
15115;DHT22;7658;51.456;7.622;2023-05-07T00:06:46;13.40;99.90
15115;DHT22;7658;51.456;7.622;2023-05-07T00:09:11;13.50;99.90
15115;DHT22;7658;51.456;7.622;2023-05-07T00:11:37;13.50;99.90
15115;DHT22;7658;51.456;7.622;2023-05-07T00:14:03;13.50;99.90
15115;DHT22;7658;51.456;7.622;2023-05-07T00:16:29;13.50;99.90
15115;DHT22;7658;51.456;7.622;2023-05-07T00:18:55;13.50;99.90
15115;DHT22;7658;51.456;7.622;2023-05-07T00:21:20;13.50;99.90
15115;DHT22;7658;51.456;7.622;2023-05-07T00:23:47;13.50;99.90
15115;DHT22;7658;51.456;7.622;2023-05-07T00:26:13;13.60;99.90
15115;DHT22;7658;51.456;7.622;2023-05-07T00:28:38;13.50;99.90
15115;DHT22;7658;51.456;7.622;2023-05-07T00:31:04;13.50;99.90
15115;DHT22;7658;51.456;7.622;2023-05-07T00:33:30;13.50;99.90
15115;DHT22;7658;51.456;7.622;2023-05-07T00:35:56;13.50;99.90
15115;DHT22;7658;51.456;7.622;2023-05-07T00:38:22;13.50;99.90
15115;DHT22;7658;51.456;7.622;2023-05-07T00:40:47;13.50;99.90
15115;DHT22;7658;51.456;7.622;2023-05-07T00:43:13;13.50;99.90
15115;DHT22;7658;51.456;7.622;2023-05-07T00:45:39;13.50;99.90
15115;DHT22;7658;51.456;7.622;2023-05-07T00:48:04;13.50;99.90
15115;DHT22;7658;51.456;7.622;2023-05-07T00:50:31;13.50;99.90
15115;DHT22;7658;51.456;7.622;2023-05-07T00:52:58;13.50;99.90
15115;DHT22;7658;51.456;7.622;2023-05-07T00:55:25;13.50;99.90
15115;DHT22;7658;51.456;7.622;2023-05-07T00:57:51;13.50;99.90
15115;DHT22;7658;51.456;7.622;2023-05-07T01:00:17;13.50;99.90
15115;DHT22;7658;51.456;7.622;2023-05-07T01:02:43;13.50;99.90
15115;DHT22;7658;51.456;7.622;2023-05-07T01:05:11;13.50;99.90
15115;DHT22;7658;51.456;7.622;2023-05-07T01:07:40;13.50;99.90
15115;DHT22;7658;51.456;7.622;2023-05-07T01:10:07;13.50;99.90
15115;DHT22;7658;51.456;7.622;2023-05-07T01:12:35;13.40;99.90
15115;DHT22;7658;51.456;7.622;2023-05-07T01:15:03;13.40;99.90
15115;DHT22;7658;51.456;7.622;2023-05-07T01:17:36;13.40;99.90
15115;DHT22;7658;51.456;7.622;2023-05-07T01:20:03;13.40;99.90
15115;DHT22;7658;51.456;7.622;2023-05-07T01:22:34;13.40;99.90
15115;DHT22;7658;51.456;7.622;2023-05-07T01:25:05;13.40;99.90
15115;DHT22;7658;51.456;7.622;2023-05-07T01:27:32;13.40;99.90
15115;DHT22;7658;51.456;7.622;2023-05-07T01:30:03;13.40;99.90
15115;DHT22;7658;51.456;7.622;2023-05-07T01:32:35;13.40;99.90
15115;DHT22;7658;51.456;7.622;2023-05-07T01:35:04;13.40;99.90
15115;DHT22;7658;51.456;7.622;2023-05-07T01:37:31;13.40;99.90
15115;DHT22;7658;51.456;7.622;2023-05-07T01:39:57;13.30;99.90
15115;DHT22;7658;51.456;7.622;2023-05-07T01:42:23;13.30;99.90
15115;DHT22;7658;51.456;7.622;2023-05-07T01:44:49;13.30;99.90
15115;DHT22;7658;51.456;7.622;2023-05-07T01:47:16;13.30;99.90
15115;DHT22;7658;51.456;7.622;2023-05-07T01:49:42;13.30;99.90
15115;DHT22;7658;51.456;7.622;2023-05-07T01:52:10;13.20;99.90
15115;DHT22;7658;51.456;7.622;2023-05-07T01:54:36;13.20;99.90
15115;DHT22;7658;51.456;7.622;2023-05-07T01:57:02;13.30;99.90
15115;DHT22;7658;51.456;7.622;2023-05-07T01:59:28;13.30;99.90
15115;DHT22;7658;51.456;7.622;2023-05-07T02:01:53;13.20;99.90
15115;DHT22;7658;51.456;7.622;2023-05-07T02:04:19;13.30;99.90
15115;DHT22;7658;51.456;7.622;2023-05-07T02:06:45;13.20;99.90
15115;DHT22;7658;51.456;7.622;2023-05-07T02:09:11;13.20;99.90
15115;DHT22;7658;51.456;7.622;2023-05-07T02:11:36;13.20;99.90
15115;DHT22;7658;51.456;7.622;2023-05-07T02:14:02;13.20;99.90
15115;DHT22;7658;51.456;7.622;2023-05-07T02:16:28;13.20;99.90
15115;DHT22;7658;51.456;7.622;2023-05-07T02:18:54;13.20;99.90
15115;DHT22;7658;51.456;7.622;2023-05-07T02:21:20;13.20;99.90
15115;DHT22;7658;51.456;7.622;2023-05-07T02:23:46;13.20;99.90
15115;DHT22;7658;51.456;7.622;2023-05-07T02:26:11;13.20;99.90
15115;DHT22;7658;51.456;7.622;2023-05-07T02:28:37;13.20;99.90
15115;DHT22;7658;51.456;7.622;2023-05-07T02:31:03;13.20;99.90
15115;DHT22;7658;51.456;7.622;2023-05-07T02:33:29;13.20;99.90
15115;DHT22;7658;51.456;7.622;2023-05-07T02:35:56;13.20;99.90
15115;DHT22;7658;51.456;7.622;2023-05-07T02:38:22;13.20;99.90
15115;DHT22;7658;51.456;7.622;2023-05-07T02:40:48;13.20;99.90
15115;DHT22;7658;51.456;7.622;2023-05-07T02:43:14;13.20;99.90
15115;DHT22;7658;51.456;7.622;2023-05-07T02:45:40;13.10;99.90
15115;DHT22;7658;51.456;7.622;2023-05-07T02:48:05;13.10;99.90
15115;DHT22;7658;51.456;7.622;2023-05-07T02:50:31;13.10;99.90
15115;DHT22;7658;51.456;7.622;2023-05-07T02:52:58;13.10;99.90
15115;DHT22;7658;51.456;7.622;2023-05-07T02:55:24;13.10;99.90
15115;DHT22;7658;51.456;7.622;2023-05-07T02:57:50;13.10;99.90
15115;DHT22;7658;51.456;7.622;2023-05-07T03:00:17;13.10;99.90
15115;DHT22;7658;51.456;7.622;2023-05-07T03:02:47;13.10;99.90
15115;DHT22;7658;51.456;7.622;2023-05-07T03:05:12;13.00;99.90
15115;DHT22;7658;51.456;7.622;2023-05-07T03:07:39;13.00;99.90
15115;DHT22;7658;51.456;7.622;2023-05-07T03:10:06;13.00;99.90
15115;DHT22;7658;51.456;7.622;2023-05-07T03:12:32;13.00;99.90
15115;DHT22;7658;51.456;7.622;2023-05-07T03:14:58;13.00;99.90
15115;DHT22;7658;51.456;7.622;2023-05-07T03:17:24;13.00;99.90
15115;DHT22;7658;51.456;7.622;2023-05-07T03:19:50;12.90;99.90
15115;DHT22;7658;51.456;7.622;2023-05-07T03:22:15;12.90;99.90
15115;DHT22;7658;51.456;7.622;2023-05-07T03:24:42;12.90;99.90
15115;DHT22;7658;51.456;7.622;2023-05-07T03:27:07;12.90;99.90
15115;DHT22;7658;51.456;7.622;2023-05-07T03:29:33;12.90;99.90
15115;DHT22;7658;51.456;7.622;2023-05-07T03:31:59;12.90;99.90
15115;DHT22;7658;51.456;7.622;2023-05-07T03:34:25;12.80;99.90
15115;DHT22;7658;51.456;7.622;2023-05-07T03:36:51;12.80;99.90
15115;DHT22;7658;51.456;7.622;2023-05-07T03:39:16;12.80;99.90
15115;DHT22;7658;51.456;7.622;2023-05-07T03:41:42;12.80;99.90
15115;DHT22;7658;51.456;7.622;2023-05-07T03:44:08;12.80;99.90
15115;DHT22;7658;51.456;7.622;2023-05-07T03:46:34;12.80;99.90
15115;DHT22;7658;51.456;7.622;2023-05-07T03:49:00;12.80;99.90
15115;DHT22;7658;51.456;7.622;2023-05-07T03:51:26;12.80;99.90
15115;DHT22;7658;51.456;7.622;2023-05-07T03:53:52;12.70;99.90
15115;DHT22;7658;51.456;7.622;2023-05-07T03:56:22;12.70;99.90
15115;DHT22;7658;51.456;7.622;2023-05-07T03:58:52;12.70;99.90
15115;DHT22;7658;51.456;7.622;2023-05-07T04:01:17;12.60;99.90
15115;DHT22;7658;51.456;7.622;2023-05-07T04:03:43;12.70;99.90
15115;DHT22;7658;51.456;7.622;2023-05-07T04:06:09;12.70;99.90
15115;DHT22;7658;51.456;7.622;2023-05-07T04:08:35;12.70;99.90
15115;DHT22;7658;51.456;7.622;2023-05-07T04:11:00;12.70;99.90
15115;DHT22;7658;51.456;7.622;2023-05-07T04:13:26;12.70;99.90
15115;DHT22;7658;51.456;7.622;2023-05-07T04:15:53;12.70;99.90
15115;DHT22;7658;51.456;7.622;2023-05-07T04:18:19;12.70;99.90
15115;DHT22;7658;51.456;7.622;2023-05-07T04:20:45;12.70;99.90
15115;DHT22;7658;51.456;7.622;2023-05-07T04:23:12;12.70;99.90
15115;DHT22;7658;51.456;7.622;2023-05-07T04:25:37;12.70;99.90
15115;DHT22;7658;51.456;7.622;2023-05-07T04:28:03;12.80;99.90
15115;DHT22;7658;51.456;7.622;2023-05-07T04:30:29;12.80;99.90
15115;DHT22;7658;51.456;7.622;2023-05-07T04:32:55;12.70;99.90
15115;DHT22;7658;51.456;7.622;2023-05-07T04:35:22;12.70;99.90
15115;DHT22;7658;51.456;7.622;2023-05-07T04:37:48;12.70;99.90
15115;DHT22;7658;51.456;7.622;2023-05-07T04:40:14;12.70;99.90
15115;DHT22;7658;51.456;7.622;2023-05-07T04:42:39;12.70;99.90
15115;DHT22;7658;51.456;7.622;2023-05-07T04:45:06;12.70;99.90
15115;DHT22;7658;51.456;7.622;2023-05-07T04:47:31;12.70;99.90
15115;DHT22;7658;51.456;7.622;2023-05-07T04:49:58;12.70;99.90
15115;DHT22;7658;51.456;7.622;2023-05-07T04:52:24;12.70;99.90
15115;DHT22;7658;51.456;7.622;2023-05-07T04:54:49;12.80;99.90
15115;DHT22;7658;51.456;7.622;2023-05-07T04:57:15;12.80;99.90
15115;DHT22;7658;51.456;7.622;2023-05-07T04:59:43;12.80;99.90
15115;DHT22;7658;51.456;7.622;2023-05-07T05:02:10;12.80;99.90
15115;DHT22;7658;51.456;7.622;2023-05-07T05:04:36;12.90;99.90
15115;DHT22;7658;51.456;7.622;2023-05-07T05:07:02;12.90;99.90
15115;DHT22;7658;51.456;7.622;2023-05-07T05:09:32;13.10;99.90
15115;DHT22;7658;51.456;7.622;2023-05-07T05:11:59;13.10;99.90
15115;DHT22;7658;51.456;7.622;2023-05-07T05:14:25;13.30;99.90
15115;DHT22;7658;51.456;7.622;2023-05-07T05:16:50;13.30;99.90
15115;DHT22;7658;51.456;7.622;2023-05-07T05:19:16;13.40;99.90
15115;DHT22;7658;51.456;7.622;2023-05-07T05:21:42;13.50;99.90
15115;DHT22;7658;51.456;7.622;2023-05-07T05:24:08;13.50;99.90
15115;DHT22;7658;51.456;7.622;2023-05-07T05:26:34;13.50;99.90
15115;DHT22;7658;51.456;7.622;2023-05-07T05:29:00;13.60;99.90
15115;DHT22;7658;51.456;7.622;2023-05-07T05:31:26;13.50;99.90
15115;DHT22;7658;51.456;7.622;2023-05-07T05:33:52;13.60;99.90
15115;DHT22;7658;51.456;7.622;2023-05-07T05:36:17;13.60;99.90
15115;DHT22;7658;51.456;7.622;2023-05-07T05:38:43;13.70;99.90
15115;DHT22;7658;51.456;7.622;2023-05-07T05:41:10;13.70;99.90
15115;DHT22;7658;51.456;7.622;2023-05-07T05:43:35;13.70;99.90
15115;DHT22;7658;51.456;7.622;2023-05-07T05:46:01;13.80;99.90
15115;DHT22;7658;51.456;7.622;2023-05-07T05:48:29;13.90;99.90
15115;DHT22;7658;51.456;7.622;2023-05-07T05:50:54;14.00;99.90
15115;DHT22;7658;51.456;7.622;2023-05-07T05:53:20;14.10;99.90
15115;DHT22;7658;51.456;7.622;2023-05-07T05:55:46;14.20;99.90
15115;DHT22;7658;51.456;7.622;2023-05-07T05:58:13;14.20;99.90
15115;DHT22;7658;51.456;7.622;2023-05-07T06:00:40;14.30;99.90
15115;DHT22;7658;51.456;7.622;2023-05-07T06:03:06;14.40;99.90
15115;DHT22;7658;51.456;7.622;2023-05-07T06:05:36;14.50;99.90
15115;DHT22;7658;51.456;7.622;2023-05-07T06:08:02;14.60;99.90
15115;DHT22;7658;51.456;7.622;2023-05-07T06:10:28;14.70;99.90
15115;DHT22;7658;51.456;7.622;2023-05-07T06:12:55;14.60;99.90
15115;DHT22;7658;51.456;7.622;2023-05-07T06:15:21;14.60;99.90
15115;DHT22;7658;51.456;7.622;2023-05-07T06:17:47;14.60;99.90
15115;DHT22;7658;51.456;7.622;2023-05-07T06:20:12;14.70;99.90
15115;DHT22;7658;51.456;7.622;2023-05-07T06:22:38;14.80;99.90
15115;DHT22;7658;51.456;7.622;2023-05-07T06:25:04;14.90;99.90
15115;DHT22;7658;51.456;7.622;2023-05-07T06:27:30;15.10;99.90
15115;DHT22;7658;51.456;7.622;2023-05-07T06:29:56;15.30;99.90
15115;DHT22;7658;51.456;7.622;2023-05-07T06:32:22;15.50;99.90
15115;DHT22;7658;51.456;7.622;2023-05-07T06:34:48;15.50;99.90
15115;DHT22;7658;51.456;7.622;2023-05-07T06:37:14;15.60;99.90
15115;DHT22;7658;51.456;7.622;2023-05-07T06:39:40;15.60;99.90
15115;DHT22;7658;51.456;7.622;2023-05-07T06:42:09;15.80;99.90
15115;DHT22;7658;51.456;7.622;2023-05-07T06:44:37;16.00;99.90
15115;DHT22;7658;51.456;7.622;2023-05-07T06:47:05;16.20;99.90
15115;DHT22;7658;51.456;7.622;2023-05-07T06:49:32;16.30;99.90
15115;DHT22;7658;51.456;7.622;2023-05-07T06:51:59;16.30;99.90
15115;DHT22;7658;51.456;7.622;2023-05-07T06:54:32;16.40;99.90
15115;DHT22;7658;51.456;7.622;2023-05-07T06:56:58;16.50;99.90
15115;DHT22;7658;51.456;7.622;2023-05-07T06:59:27;16.60;99.90
15115;DHT22;7658;51.456;7.622;2023-05-07T07:01:55;16.60;99.90
15115;DHT22;7658;51.456;7.622;2023-05-07T07:04:23;16.70;99.90
15115;DHT22;7658;51.456;7.622;2023-05-07T07:06:53;16.70;99.90
15115;DHT22;7658;51.456;7.622;2023-05-07T07:09:19;16.70;99.90
15115;DHT22;7658;51.456;7.622;2023-05-07T07:11:50;16.70;99.90
15115;DHT22;7658;51.456;7.622;2023-05-07T07:14:18;16.70;99.90
15115;DHT22;7658;51.456;7.622;2023-05-07T07:16:44;16.80;99.90
15115;DHT22;7658;51.456;7.622;2023-05-07T07:19:12;16.90;99.90
15115;DHT22;7658;51.456;7.622;2023-05-07T07:21:43;17.00;99.90
15115;DHT22;7658;51.456;7.622;2023-05-07T07:24:15;17.00;99.90
15115;DHT22;7658;51.456;7.622;2023-05-07T07:26:46;17.10;99.90
15115;DHT22;7658;51.456;7.622;2023-05-07T07:29:13;17.20;99.90
15115;DHT22;7658;51.456;7.622;2023-05-07T07:31:39;17.20;99.90
15115;DHT22;7658;51.456;7.622;2023-05-07T07:34:05;17.20;99.90
15115;DHT22;7658;51.456;7.622;2023-05-07T07:36:31;17.30;99.90
15115;DHT22;7658;51.456;7.622;2023-05-07T07:38:57;17.40;99.90
15115;DHT22;7658;51.456;7.622;2023-05-07T07:41:23;17.40;99.90
15115;DHT22;7658;51.456;7.622;2023-05-07T07:43:48;17.40;99.90
15115;DHT22;7658;51.456;7.622;2023-05-07T07:46:14;17.30;99.90
15115;DHT22;7658;51.456;7.622;2023-05-07T07:48:40;17.30;99.90
15115;DHT22;7658;51.456;7.622;2023-05-07T07:51:06;17.20;99.90
15115;DHT22;7658;51.456;7.622;2023-05-07T07:53:31;17.20;99.90
15115;DHT22;7658;51.456;7.622;2023-05-07T07:55:57;17.20;99.90
15115;DHT22;7658;51.456;7.622;2023-05-07T07:58:23;17.20;99.90
15115;DHT22;7658;51.456;7.622;2023-05-07T08:00:50;17.20;99.90
15115;DHT22;7658;51.456;7.622;2023-05-07T08:03:16;17.20;99.90
15115;DHT22;7658;51.456;7.622;2023-05-07T08:05:42;17.40;99.90
15115;DHT22;7658;51.456;7.622;2023-05-07T08:08:08;17.50;99.90
15115;DHT22;7658;51.456;7.622;2023-05-07T08:10:35;17.60;99.90
15115;DHT22;7658;51.456;7.622;2023-05-07T08:13:04;17.90;99.90
15115;DHT22;7658;51.456;7.622;2023-05-07T08:15:30;18.10;99.90
15115;DHT22;7658;51.456;7.622;2023-05-07T08:17:56;18.40;99.90
15115;DHT22;7658;51.456;7.622;2023-05-07T08:20:23;18.40;99.90
15115;DHT22;7658;51.456;7.622;2023-05-07T08:22:49;18.60;99.90
15115;DHT22;7658;51.456;7.622;2023-05-07T08:25:16;18.70;99.90
15115;DHT22;7658;51.456;7.622;2023-05-07T08:27:42;18.90;99.90
15115;DHT22;7658;51.456;7.622;2023-05-07T08:30:08;19.00;99.90
15115;DHT22;7658;51.456;7.622;2023-05-07T08:32:34;19.10;99.90
15115;DHT22;7658;51.456;7.622;2023-05-07T08:35:00;19.20;99.90
15115;DHT22;7658;51.456;7.622;2023-05-07T08:37:26;19.20;99.90
15115;DHT22;7658;51.456;7.622;2023-05-07T08:39:51;19.20;99.90
15115;DHT22;7658;51.456;7.622;2023-05-07T08:42:17;19.20;99.90
15115;DHT22;7658;51.456;7.622;2023-05-07T08:44:45;19.10;99.90
15115;DHT22;7658;51.456;7.622;2023-05-07T08:47:14;19.10;99.90
15115;DHT22;7658;51.456;7.622;2023-05-07T08:49:39;19.10;99.90
15115;DHT22;7658;51.456;7.622;2023-05-07T08:52:06;19.10;99.90
15115;DHT22;7658;51.456;7.622;2023-05-07T08:54:31;19.20;99.90
15115;DHT22;7658;51.456;7.622;2023-05-07T08:56:57;19.50;99.90
15115;DHT22;7658;51.456;7.622;2023-05-07T08:59:23;20.00;99.90
15115;DHT22;7658;51.456;7.622;2023-05-07T09:01:49;20.70;99.90
15115;DHT22;7658;51.456;7.622;2023-05-07T09:04:15;21.10;99.90
15115;DHT22;7658;51.456;7.622;2023-05-07T09:06:41;21.70;99.90
15115;DHT22;7658;51.456;7.622;2023-05-07T09:09:07;22.20;92.70
15115;DHT22;7658;51.456;7.622;2023-05-07T09:11:33;23.30;68.50
15115;DHT22;7658;51.456;7.622;2023-05-07T09:13:59;23.50;1.00
15115;DHT22;7658;51.456;7.622;2023-05-07T09:16:28;23.70;1.00
15115;DHT22;7658;51.456;7.622;2023-05-07T09:18:54;23.70;1.00
15115;DHT22;7658;51.456;7.622;2023-05-07T09:21:21;24.00;1.00
15115;DHT22;7658;51.456;7.622;2023-05-07T09:23:52;23.50;1.00
15115;DHT22;7658;51.456;7.622;2023-05-07T09:26:24;23.40;1.00
15115;DHT22;7658;51.456;7.622;2023-05-07T09:28:54;22.90;1.00
15115;DHT22;7658;51.456;7.622;2023-05-07T09:31:22;22.60;1.00
15115;DHT22;7658;51.456;7.622;2023-05-07T09:33:49;22.60;1.00
15115;DHT22;7658;51.456;7.622;2023-05-07T09:36:16;22.80;1.00
15115;DHT22;7658;51.456;7.622;2023-05-07T09:38:43;23.50;1.00
15115;DHT22;7658;51.456;7.622;2023-05-07T09:41:12;23.70;1.00
15115;DHT22;7658;51.456;7.622;2023-05-07T09:43:40;24.00;1.00
15115;DHT22;7658;51.456;7.622;2023-05-07T09:46:13;23.70;1.00
15115;DHT22;7658;51.456;7.622;2023-05-07T09:48:40;23.70;1.00
15115;DHT22;7658;51.456;7.622;2023-05-07T09:51:29;23.60;1.00
15115;DHT22;7658;51.456;7.622;2023-05-07T09:53:57;23.60;1.00
15115;DHT22;7658;51.456;7.622;2023-05-07T09:56:25;23.50;1.00
15115;DHT22;7658;51.456;7.622;2023-05-07T09:58:57;23.40;1.00
15115;DHT22;7658;51.456;7.622;2023-05-07T10:01:25;23.60;1.00
15115;DHT22;7658;51.456;7.622;2023-05-07T10:03:52;23.90;1.00
15115;DHT22;7658;51.456;7.622;2023-05-07T10:06:20;24.20;1.00
15115;DHT22;7658;51.456;7.622;2023-05-07T10:08:46;23.70;1.00
15115;DHT22;7658;51.456;7.622;2023-05-07T10:11:15;23.30;1.00
15115;DHT22;7658;51.456;7.622;2023-05-07T10:13:42;22.90;1.00
15115;DHT22;7658;51.456;7.622;2023-05-07T10:16:08;22.60;1.00
15115;DHT22;7658;51.456;7.622;2023-05-07T10:18:35;22.50;1.00
15115;DHT22;7658;51.456;7.622;2023-05-07T10:21:10;22.50;1.00
15115;DHT22;7658;51.456;7.622;2023-05-07T10:23:36;22.50;1.00
15115;DHT22;7658;51.456;7.622;2023-05-07T10:26:06;22.60;1.00
15115;DHT22;7658;51.456;7.622;2023-05-07T10:28:40;22.80;1.00
15115;DHT22;7658;51.456;7.622;2023-05-07T10:31:23;22.80;1.00
15115;DHT22;7658;51.456;7.622;2023-05-07T10:33:55;22.80;1.00
15115;DHT22;7658;51.456;7.622;2023-05-07T10:36:22;23.00;1.00
15115;DHT22;7658;51.456;7.622;2023-05-07T10:38:49;23.10;1.00
15115;DHT22;7658;51.456;7.622;2023-05-07T10:41:15;22.90;1.00
15115;DHT22;7658;51.456;7.622;2023-05-07T10:43:44;22.40;1.00
15115;DHT22;7658;51.456;7.622;2023-05-07T10:51:33;21.80;1.00
15115;DHT22;7658;51.456;7.622;2023-05-07T10:56:33;21.90;1.00
15115;DHT22;7658;51.456;7.622;2023-05-07T11:01:59;21.80;1.00
15115;DHT22;7658;51.456;7.622;2023-05-07T11:04:28;22.00;1.00
15115;DHT22;7658;51.456;7.622;2023-05-07T11:09:54;22.00;1.00
15115;DHT22;7658;51.456;7.622;2023-05-07T11:15:05;22.10;1.00
15115;DHT22;7658;51.456;7.622;2023-05-07T11:17:32;22.00;1.00
15115;DHT22;7658;51.456;7.622;2023-05-07T11:20:00;22.00;1.00
15115;DHT22;7658;51.456;7.622;2023-05-07T11:25:02;21.90;1.00
15115;DHT22;7658;51.456;7.622;2023-05-07T11:27:29;21.80;1.00
15115;DHT22;7658;51.456;7.622;2023-05-07T11:29:56;21.50;1.00
15115;DHT22;7658;51.456;7.622;2023-05-07T11:32:29;21.50;1.00
15115;DHT22;7658;51.456;7.622;2023-05-07T11:34:57;21.40;1.00
15115;DHT22;7658;51.456;7.622;2023-05-07T11:37:24;21.50;1.00
15115;DHT22;7658;51.456;7.622;2023-05-07T11:39:50;21.40;1.00
15115;DHT22;7658;51.456;7.622;2023-05-07T11:42:28;21.30;1.00
15115;DHT22;7658;51.456;7.622;2023-05-07T11:44:55;21.30;1.00
15115;DHT22;7658;51.456;7.622;2023-05-07T11:47:21;21.40;1.00
15115;DHT22;7658;51.456;7.622;2023-05-07T11:49:51;21.40;1.00
15115;DHT22;7658;51.456;7.622;2023-05-07T11:52:19;21.60;1.00
15115;DHT22;7658;51.456;7.622;2023-05-07T11:54:54;21.60;1.00
15115;DHT22;7658;51.456;7.622;2023-05-07T11:57:21;21.60;1.00
15115;DHT22;7658;51.456;7.622;2023-05-07T11:59:47;21.50;1.00
15115;DHT22;7658;51.456;7.622;2023-05-07T12:02:14;21.50;1.00
15115;DHT22;7658;51.456;7.622;2023-05-07T12:04:40;21.60;1.00
15115;DHT22;7658;51.456;7.622;2023-05-07T12:07:12;21.60;1.00
15115;DHT22;7658;51.456;7.622;2023-05-07T12:09:39;21.70;1.00
15115;DHT22;7658;51.456;7.622;2023-05-07T12:12:05;21.90;1.00
15115;DHT22;7658;51.456;7.622;2023-05-07T12:14:31;21.90;1.00
15115;DHT22;7658;51.456;7.622;2023-05-07T12:17:01;22.10;1.00
15115;DHT22;7658;51.456;7.622;2023-05-07T12:19:30;22.30;1.00
15115;DHT22;7658;51.456;7.622;2023-05-07T12:21:56;22.50;1.00
15115;DHT22;7658;51.456;7.622;2023-05-07T12:24:22;22.50;1.00
15115;DHT22;7658;51.456;7.622;2023-05-07T12:26:48;22.50;1.00
15115;DHT22;7658;51.456;7.622;2023-05-07T12:29:14;22.60;1.00
15115;DHT22;7658;51.456;7.622;2023-05-07T12:31:41;22.90;1.00
15115;DHT22;7658;51.456;7.622;2023-05-07T12:34:07;23.40;1.00
15115;DHT22;7658;51.456;7.622;2023-05-07T12:36:40;23.50;1.00
15115;DHT22;7658;51.456;7.622;2023-05-07T12:39:07;23.50;1.00
15115;DHT22;7658;51.456;7.622;2023-05-07T12:44:19;23.00;99.90
15115;DHT22;7658;51.456;7.622;2023-05-07T12:46:46;22.90;99.90
15115;DHT22;7658;51.456;7.622;2023-05-07T12:49:12;22.70;1.00
15115;DHT22;7658;51.456;7.622;2023-05-07T12:51:38;22.70;1.00
15115;DHT22;7658;51.456;7.622;2023-05-07T12:54:04;22.40;1.00
15115;DHT22;7658;51.456;7.622;2023-05-07T12:56:36;22.00;1.00
15115;DHT22;7658;51.456;7.622;2023-05-07T12:59:02;21.80;1.00
15115;DHT22;7658;51.456;7.622;2023-05-07T13:01:29;21.60;1.00
15115;DHT22;7658;51.456;7.622;2023-05-07T13:04:02;21.50;1.00
15115;DHT22;7658;51.456;7.622;2023-05-07T13:06:29;21.40;1.00
15115;DHT22;7658;51.456;7.622;2023-05-07T13:08:55;21.30;1.00
15115;DHT22;7658;51.456;7.622;2023-05-07T13:11:21;21.20;1.00
15115;DHT22;7658;51.456;7.622;2023-05-07T13:13:48;21.00;1.00
15115;DHT22;7658;51.456;7.622;2023-05-07T13:16:14;20.90;1.00
15115;DHT22;7658;51.456;7.622;2023-05-07T13:18:40;20.80;1.00
15115;DHT22;7658;51.456;7.622;2023-05-07T13:21:06;20.60;1.00
15115;DHT22;7658;51.456;7.622;2023-05-07T13:23:31;20.50;1.00
15115;DHT22;7658;51.456;7.622;2023-05-07T13:25:57;20.40;1.00
15115;DHT22;7658;51.456;7.622;2023-05-07T13:28:24;20.30;1.00
15115;DHT22;7658;51.456;7.622;2023-05-07T13:30:50;20.30;1.00
15115;DHT22;7658;51.456;7.622;2023-05-07T13:33:17;20.40;1.00
15115;DHT22;7658;51.456;7.622;2023-05-07T13:35:44;20.50;1.00
15115;DHT22;7658;51.456;7.622;2023-05-07T13:38:10;20.50;1.00
15115;DHT22;7658;51.456;7.622;2023-05-07T13:40:35;20.50;1.00
15115;DHT22;7658;51.456;7.622;2023-05-07T13:43:01;20.40;1.00
15115;DHT22;7658;51.456;7.622;2023-05-07T13:45:28;20.30;1.00
15115;DHT22;7658;51.456;7.622;2023-05-07T13:47:55;20.20;2.10
15115;DHT22;7658;51.456;7.622;2023-05-07T13:50:21;20.10;1.00
15115;DHT22;7658;51.456;7.622;2023-05-07T13:52:47;19.90;2.90
15115;DHT22;7658;51.456;7.622;2023-05-07T13:55:20;19.80;53.90
15115;DHT22;7658;51.456;7.622;2023-05-07T13:57:47;19.70;99.90
15115;DHT22;7658;51.456;7.622;2023-05-07T14:00:13;19.50;99.90
15115;DHT22;7658;51.456;7.622;2023-05-07T14:02:40;19.40;99.90
15115;DHT22;7658;51.456;7.622;2023-05-07T14:05:06;19.30;99.90
15115;DHT22;7658;51.456;7.622;2023-05-07T14:07:32;19.20;99.90
15115;DHT22;7658;51.456;7.622;2023-05-07T14:09:58;19.10;99.90
15115;DHT22;7658;51.456;7.622;2023-05-07T14:12:24;19.00;99.90
15115;DHT22;7658;51.456;7.622;2023-05-07T14:14:50;19.00;99.90
15115;DHT22;7658;51.456;7.622;2023-05-07T14:17:18;19.00;99.90
15115;DHT22;7658;51.456;7.622;2023-05-07T14:19:45;19.00;99.90
15115;DHT22;7658;51.456;7.622;2023-05-07T14:22:13;19.00;99.90
15115;DHT22;7658;51.456;7.622;2023-05-07T14:24:40;19.00;99.90
15115;DHT22;7658;51.456;7.622;2023-05-07T14:27:06;18.90;99.90
15115;DHT22;7658;51.456;7.622;2023-05-07T14:29:32;18.70;99.90
15115;DHT22;7658;51.456;7.622;2023-05-07T14:31:58;18.70;99.90
15115;DHT22;7658;51.456;7.622;2023-05-07T14:34:23;18.60;99.90
15115;DHT22;7658;51.456;7.622;2023-05-07T14:36:49;18.60;99.90
15115;DHT22;7658;51.456;7.622;2023-05-07T14:39:15;18.50;99.90
15115;DHT22;7658;51.456;7.622;2023-05-07T14:41:40;18.50;99.90
15115;DHT22;7658;51.456;7.622;2023-05-07T14:44:06;18.40;99.90
15115;DHT22;7658;51.456;7.622;2023-05-07T14:46:32;18.40;99.90
15115;DHT22;7658;51.456;7.622;2023-05-07T14:48:58;18.30;99.90
15115;DHT22;7658;51.456;7.622;2023-05-07T14:51:23;18.40;99.90
15115;DHT22;7658;51.456;7.622;2023-05-07T14:53:50;18.40;99.90
15115;DHT22;7658;51.456;7.622;2023-05-07T14:56:16;18.40;99.90
15115;DHT22;7658;51.456;7.622;2023-05-07T14:58:43;18.40;99.90
15115;DHT22;7658;51.456;7.622;2023-05-07T15:01:09;18.40;99.90
15115;DHT22;7658;51.456;7.622;2023-05-07T15:03:34;18.40;99.90
15115;DHT22;7658;51.456;7.622;2023-05-07T15:06:01;18.40;99.90
15115;DHT22;7658;51.456;7.622;2023-05-07T15:08:26;18.30;99.90
15115;DHT22;7658;51.456;7.622;2023-05-07T15:10:52;18.30;99.90
15115;DHT22;7658;51.456;7.622;2023-05-07T15:13:18;18.30;99.90
15115;DHT22;7658;51.456;7.622;2023-05-07T15:15:44;18.30;99.90
15115;DHT22;7658;51.456;7.622;2023-05-07T15:18:10;18.30;99.90
15115;DHT22;7658;51.456;7.622;2023-05-07T15:20:36;18.30;99.90
15115;DHT22;7658;51.456;7.622;2023-05-07T15:23:02;18.30;99.90
15115;DHT22;7658;51.456;7.622;2023-05-07T15:25:31;18.30;99.90
15115;DHT22;7658;51.456;7.622;2023-05-07T15:27:58;18.20;99.90
15115;DHT22;7658;51.456;7.622;2023-05-07T15:30:24;18.20;99.90
15115;DHT22;7658;51.456;7.622;2023-05-07T15:32:50;18.20;99.90
15115;DHT22;7658;51.456;7.622;2023-05-07T15:35:16;18.20;99.90
15115;DHT22;7658;51.456;7.622;2023-05-07T15:37:48;18.30;99.90
15115;DHT22;7658;51.456;7.622;2023-05-07T15:40:15;18.30;99.90
15115;DHT22;7658;51.456;7.622;2023-05-07T15:42:41;18.30;99.90
15115;DHT22;7658;51.456;7.622;2023-05-07T15:45:07;18.30;99.90
15115;DHT22;7658;51.456;7.622;2023-05-07T15:47:35;18.30;99.90
15115;DHT22;7658;51.456;7.622;2023-05-07T15:50:01;18.20;99.90
15115;DHT22;7658;51.456;7.622;2023-05-07T15:52:27;18.20;99.90
15115;DHT22;7658;51.456;7.622;2023-05-07T15:54:54;18.30;99.90
15115;DHT22;7658;51.456;7.622;2023-05-07T15:57:21;18.30;99.90
15115;DHT22;7658;51.456;7.622;2023-05-07T15:59:47;18.30;99.90
15115;DHT22;7658;51.456;7.622;2023-05-07T16:02:13;18.30;99.90
15115;DHT22;7658;51.456;7.622;2023-05-07T16:04:39;18.30;99.90
15115;DHT22;7658;51.456;7.622;2023-05-07T16:07:05;18.20;99.90
15115;DHT22;7658;51.456;7.622;2023-05-07T16:09:31;18.20;99.90